sensor_id;sensor_type;location;lat;lon;timestamp;pressure;altitude;pressure_sealevel;temperature;humidity
47716;BME280;33476;50.984;3.538;2023-05-21T00:00:43;101914.66;;;17.90;56.88
47716;BME280;33476;50.984;3.538;2023-05-21T00:03:08;101916.63;;;17.86;57.03
47716;BME280;33476;50.984;3.538;2023-05-21T00:05:39;101908.06;;;17.83;57.28
47716;BME280;33476;50.984;3.538;2023-05-21T00:08:05;101914.38;;;17.80;57.18
47716;BME280;33476;50.984;3.538;2023-05-21T00:10:30;101910.91;;;17.80;57.18
47716;BME280;33476;50.984;3.538;2023-05-21T00:12:56;101913.69;;;17.77;57.19
47716;BME280;33476;50.984;3.538;2023-05-21T00:15:21;101909.47;;;17.74;57.36
47716;BME280;33476;50.984;3.538;2023-05-21T00:17:47;101912.31;;;17.71;57.44
47716;BME280;33476;50.984;3.538;2023-05-21T00:20:12;101919.63;;;17.66;57.56
47716;BME280;33476;50.984;3.538;2023-05-21T00:22:37;101918.88;;;17.64;57.61
47716;BME280;33476;50.984;3.538;2023-05-21T00:25:04;101914.53;;;17.63;57.60
47716;BME280;33476;50.984;3.538;2023-05-21T00:27:30;101912.03;;;17.60;57.75
47716;BME280;33476;50.984;3.538;2023-05-21T00:29:56;101914.88;;;17.57;58.09
47716;BME280;33476;50.984;3.538;2023-05-21T00:32:21;101906.22;;;17.55;57.91
47716;BME280;33476;50.984;3.538;2023-05-21T00:34:46;101904.56;;;17.52;58.25
47716;BME280;33476;50.984;3.538;2023-05-21T00:37:12;101899.59;;;17.48;58.06
47716;BME280;33476;50.984;3.538;2023-05-21T00:39:39;101906.66;;;17.47;57.98
47716;BME280;33476;50.984;3.538;2023-05-21T00:42:05;101903.34;;;17.44;58.01
47716;BME280;33476;50.984;3.538;2023-05-21T00:44:31;101903.63;;;17.39;58.36
47716;BME280;33476;50.984;3.538;2023-05-21T00:47:02;101896.91;;;17.33;58.26
47716;BME280;33476;50.984;3.538;2023-05-21T00:49:29;101895.97;;;17.34;58.26
47716;BME280;33476;50.984;3.538;2023-05-21T00:51:55;101900.41;;;17.34;58.20
47716;BME280;33476;50.984;3.538;2023-05-21T00:54:22;101896.16;;;17.31;58.20
47716;BME280;33476;50.984;3.538;2023-05-21T00:56:48;101897.25;;;17.27;58.28
47716;BME280;33476;50.984;3.538;2023-05-21T00:59:15;101898.22;;;17.26;58.47
47716;BME280;33476;50.984;3.538;2023-05-21T01:01:42;101894.81;;;17.24;58.41
47716;BME280;33476;50.984;3.538;2023-05-21T01:04:10;101902.94;;;17.21;58.41
47716;BME280;33476;50.984;3.538;2023-05-21T01:06:35;101903.00;;;17.20;58.47
47716;BME280;33476;50.984;3.538;2023-05-21T01:09:02;101907.59;;;17.16;58.52
47716;BME280;33476;50.984;3.538;2023-05-21T01:11:40;101903.63;;;17.09;58.76
47716;BME280;33476;50.984;3.538;2023-05-21T01:14:09;101899.28;;;17.08;58.75
47716;BME280;33476;50.984;3.538;2023-05-21T01:16:38;101899.63;;;17.02;58.87
47716;BME280;33476;50.984;3.538;2023-05-21T01:19:05;101904.06;;;17.01;58.69
47716;BME280;33476;50.984;3.538;2023-05-21T01:21:36;101895.38;;;16.99;58.81
47716;BME280;33476;50.984;3.538;2023-05-21T01:24:03;101892.91;;;16.96;58.75
47716;BME280;33476;50.984;3.538;2023-05-21T01:26:30;101889.50;;;16.94;58.79
47716;BME280;33476;50.984;3.538;2023-05-21T01:28:57;101889.50;;;16.94;58.64
47716;BME280;33476;50.984;3.538;2023-05-21T01:31:27;101896.78;;;16.91;58.56
47716;BME280;33476;50.984;3.538;2023-05-21T01:33:58;101895.94;;;16.90;58.61
47716;BME280;33476;50.984;3.538;2023-05-21T01:36:29;101890.91;;;16.85;58.64
47716;BME280;33476;50.984;3.538;2023-05-21T01:41:32;101894.75;;;16.80;58.73
47716;BME280;33476;50.984;3.538;2023-05-21T01:43:59;101898.25;;;16.80;58.63
47716;BME280;33476;50.984;3.538;2023-05-21T01:46:26;101899.34;;;16.76;58.67
47716;BME280;33476;50.984;3.538;2023-05-21T01:48:54;101895.94;;;16.74;58.79
47716;BME280;33476;50.984;3.538;2023-05-21T01:51:20;101899.44;;;16.75;58.71
47716;BME280;33476;50.984;3.538;2023-05-21T01:53:45;101903.94;;;16.73;58.77
47716;BME280;33476;50.984;3.538;2023-05-21T01:56:11;101898.72;;;16.71;59.02
47716;BME280;33476;50.984;3.538;2023-05-21T01:58:36;101896.19;;;16.70;58.89
47716;BME280;33476;50.984;3.538;2023-05-21T02:01:02;101896.25;;;16.68;59.06
47716;BME280;33476;50.984;3.538;2023-05-21T02:03:28;101898.22;;;16.65;59.00
47716;BME280;33476;50.984;3.538;2023-05-21T02:05:55;101903.56;;;16.63;59.24
47716;BME280;33476;50.984;3.538;2023-05-21T02:08:21;101893.09;;;16.62;59.11
47716;BME280;33476;50.984;3.538;2023-05-21T02:10:47;101885.19;;;16.62;59.17
47716;BME280;33476;50.984;3.538;2023-05-21T02:13:13;101882.53;;;16.62;59.00
47716;BME280;33476;50.984;3.538;2023-05-21T02:15:38;101887.81;;;16.62;59.18
47716;BME280;33476;50.984;3.538;2023-05-21T02:18:04;101886.31;;;16.57;59.29
47716;BME280;33476;50.984;3.538;2023-05-21T02:20:30;101880.28;;;16.55;59.43
47716;BME280;33476;50.984;3.538;2023-05-21T02:22:55;101877.78;;;16.52;59.41
47716;BME280;33476;50.984;3.538;2023-05-21T02:25:21;101884.09;;;16.50;59.41
47716;BME280;33476;50.984;3.538;2023-05-21T02:27:46;101878.81;;;16.50;59.44
47716;BME280;33476;50.984;3.538;2023-05-21T02:30:14;101881.56;;;16.48;59.32
47716;BME280;33476;50.984;3.538;2023-05-21T02:32:40;101890.31;;;16.49;59.19
47716;BME280;33476;50.984;3.538;2023-05-21T02:35:07;101879.91;;;16.46;59.36
47716;BME280;33476;50.984;3.538;2023-05-21T02:37:33;101889.78;;;16.42;59.53
47716;BME280;33476;50.984;3.538;2023-05-21T02:40:00;101887.25;;;16.41;59.51
47716;BME280;33476;50.984;3.538;2023-05-21T02:42:26;101887.16;;;16.42;59.50
47716;BME280;33476;50.984;3.538;2023-05-21T02:44:52;101881.13;;;16.40;59.51
47716;BME280;33476;50.984;3.538;2023-05-21T02:47:18;101889.19;;;16.37;59.48
47716;BME280;33476;50.984;3.538;2023-05-21T02:49:44;101888.44;;;16.35;59.48
47716;BME280;33476;50.984;3.538;2023-05-21T02:52:09;101886.81;;;16.33;59.50
47716;BME280;33476;50.984;3.538;2023-05-21T02:54:35;101883.34;;;16.32;59.59
47716;BME280;33476;50.984;3.538;2023-05-21T02:57:00;101883.34;;;16.32;59.42
47716;BME280;33476;50.984;3.538;2023-05-21T02:59:25;101883.16;;;16.35;59.36
47716;BME280;33476;50.984;3.538;2023-05-21T03:01:51;101884.19;;;16.33;59.34
47716;BME280;33476;50.984;3.538;2023-05-21T03:04:16;101889.03;;;16.24;59.73
47716;BME280;33476;50.984;3.538;2023-05-21T03:06:42;101887.34;;;16.23;59.63
47716;BME280;33476;50.984;3.538;2023-05-21T03:09:08;101892.69;;;16.22;59.71
47716;BME280;33476;50.984;3.538;2023-05-21T03:11:35;101886.47;;;16.23;59.63
47716;BME280;33476;50.984;3.538;2023-05-21T03:14:01;101885.63;;;16.22;59.54
47716;BME280;33476;50.984;3.538;2023-05-21T03:16:26;101878.56;;;16.23;59.46
47716;BME280;33476;50.984;3.538;2023-05-21T03:18:52;101876.69;;;16.25;59.50
47716;BME280;33476;50.984;3.538;2023-05-21T03:21:18;101874.06;;;16.25;59.50
47716;BME280;33476;50.984;3.538;2023-05-21T03:23:47;101876.69;;;16.25;59.44
47716;BME280;33476;50.984;3.538;2023-05-21T03:26:12;101880.38;;;16.22;59.51
47716;BME280;33476;50.984;3.538;2023-05-21T03:28:38;101873.31;;;16.23;59.42
47716;BME280;33476;50.984;3.538;2023-05-21T03:31:03;101875.00;;;16.24;59.40
47716;BME280;33476;50.984;3.538;2023-05-21T03:33:29;101871.50;;;16.23;59.46
47716;BME280;33476;50.984;3.538;2023-05-21T03:35:54;101871.50;;;16.23;59.62
47716;BME280;33476;50.984;3.538;2023-05-21T03:38:20;101874.31;;;16.20;59.74
47716;BME280;33476;50.984;3.538;2023-05-21T03:40:45;101869.03;;;16.20;59.46
47716;BME280;33476;50.984;3.538;2023-05-21T03:43:10;101873.31;;;16.23;59.70
47716;BME280;33476;50.984;3.538;2023-05-21T03:45:36;101872.44;;;16.22;59.66
47716;BME280;33476;50.984;3.538;2023-05-21T03:48:01;101874.25;;;16.22;59.78
47716;BME280;33476;50.984;3.538;2023-05-21T03:50:26;101871.50;;;16.23;59.77
47716;BME280;33476;50.984;3.538;2023-05-21T03:52:52;101875.75;;;16.26;59.64
47716;BME280;33476;50.984;3.538;2023-05-21T03:55:17;101881.25;;;16.21;59.86
47716;BME280;33476;50.984;3.538;2023-05-21T03:57:43;101878.63;;;16.21;59.79
47716;BME280;33476;50.984;3.538;2023-05-21T04:00:08;101877.63;;;16.24;59.57
47716;BME280;33476;50.984;3.538;2023-05-21T04:02:34;101881.13;;;16.24;59.79
47716;BME280;33476;50.984;3.538;2023-05-21T04:04:59;101882.91;;;16.24;59.63
47716;BME280;33476;50.984;3.538;2023-05-21T04:07:25;101884.69;;;16.23;59.84
47716;BME280;33476;50.984;3.538;2023-05-21T04:09:51;101892.50;;;16.25;59.66
47716;BME280;33476;50.984;3.538;2023-05-21T04:12:16;101883.91;;;16.21;59.69
47716;BME280;33476;50.984;3.538;2023-05-21T04:14:44;101885.03;;;16.17;60.06
47716;BME280;33476;50.984;3.538;2023-05-21T04:17:10;101897.53;;;16.14;60.23
47716;BME280;33476;50.984;3.538;2023-05-21T04:19:37;101896.72;;;16.12;60.30
47716;BME280;33476;50.984;3.538;2023-05-21T04:22:03;101895.81;;;16.13;60.30
47716;BME280;33476;50.984;3.538;2023-05-21T04:24:28;101883.47;;;16.13;60.46
47716;BME280;33476;50.984;3.538;2023-05-21T04:26:54;101883.47;;;16.13;60.48
47716;BME280;33476;50.984;3.538;2023-05-21T04:29:20;101881.63;;;16.15;60.40
47716;BME280;33476;50.984;3.538;2023-05-21T04:31:48;101884.41;;;16.12;60.58
47716;BME280;33476;50.984;3.538;2023-05-21T04:34:14;101885.19;;;16.14;60.46
47716;BME280;33476;50.984;3.538;2023-05-21T04:36:44;101873.81;;;16.14;60.62
47716;BME280;33476;50.984;3.538;2023-05-21T04:39:12;101876.44;;;16.14;60.72
47716;BME280;33476;50.984;3.538;2023-05-21T04:41:39;101881.34;;;16.20;60.58
47716;BME280;33476;50.984;3.538;2023-05-21T04:44:08;101880.38;;;16.22;60.45
47716;BME280;33476;50.984;3.538;2023-05-21T04:46:34;101881.88;;;16.26;60.35
47716;BME280;33476;50.984;3.538;2023-05-21T04:49:02;101888.19;;;16.24;60.46
47716;BME280;33476;50.984;3.538;2023-05-21T04:51:29;101879.25;;;16.26;60.41
47716;BME280;33476;50.984;3.538;2023-05-21T04:53:54;101880.84;;;16.29;60.40
47716;BME280;33476;50.984;3.538;2023-05-21T04:56:20;101892.34;;;16.28;60.53
47716;BME280;33476;50.984;3.538;2023-05-21T04:58:51;101889.13;;;16.39;59.80
47716;BME280;33476;50.984;3.538;2023-05-21T05:01:17;101892.53;;;16.41;59.84
47716;BME280;33476;50.984;3.538;2023-05-21T05:03:44;101897.78;;;16.41;60.06
47716;BME280;33476;50.984;3.538;2023-05-21T05:06:10;101894.03;;;16.45;60.09
47716;BME280;33476;50.984;3.538;2023-05-21T05:08:35;101893.94;;;16.46;60.17
47716;BME280;33476;50.984;3.538;2023-05-21T05:11:00;101892.19;;;16.47;60.28
47716;BME280;33476;50.984;3.538;2023-05-21T05:13:26;101895.69;;;16.47;60.51
47716;BME280;33476;50.984;3.538;2023-05-21T05:15:52;101893.81;;;16.49;60.50
47716;BME280;33476;50.984;3.538;2023-05-21T05:18:18;101891.06;;;16.51;60.37
47716;BME280;33476;50.984;3.538;2023-05-21T05:20:44;101891.72;;;16.54;60.74
47716;BME280;33476;50.984;3.538;2023-05-21T05:23:11;101891.69;;;16.56;60.71
47716;BME280;33476;50.984;3.538;2023-05-21T05:25:36;101895.91;;;16.58;60.90
47716;BME280;33476;50.984;3.538;2023-05-21T05:28:01;101888.53;;;16.65;60.80
47716;BME280;33476;50.984;3.538;2023-05-21T05:30:27;101894.50;;;16.69;60.75
47716;BME280;33476;50.984;3.538;2023-05-21T05:32:52;101891.75;;;16.70;61.09
47716;BME280;33476;50.984;3.538;2023-05-21T05:35:17;101896.88;;;16.73;61.20
47716;BME280;33476;50.984;3.538;2023-05-21T05:37:43;101901.03;;;16.77;61.13
47716;BME280;33476;50.984;3.538;2023-05-21T05:40:08;101899.00;;;16.82;61.23
47716;BME280;33476;50.984;3.538;2023-05-21T05:42:34;101900.44;;;16.88;61.22
47716;BME280;33476;50.984;3.538;2023-05-21T05:44:59;101886.13;;;16.92;61.18
47716;BME280;33476;50.984;3.538;2023-05-21T05:47:25;101891.06;;;16.98;61.21
47716;BME280;33476;50.984;3.538;2023-05-21T05:49:50;101894.25;;;17.03;61.15
47716;BME280;33476;50.984;3.538;2023-05-21T05:52:16;101888.97;;;17.03;61.44
47716;BME280;33476;50.984;3.538;2023-05-21T05:54:41;101885.34;;;17.06;61.43
47716;BME280;33476;50.984;3.538;2023-05-21T05:57:06;101883.25;;;17.11;61.51
47716;BME280;33476;50.984;3.538;2023-05-21T05:59:31;101875.00;;;17.17;61.54
47716;BME280;33476;50.984;3.538;2023-05-21T06:01:58;101875.19;;;17.28;61.35
47716;BME280;33476;50.984;3.538;2023-05-21T06:04:24;101886.94;;;17.38;61.36
47716;BME280;33476;50.984;3.538;2023-05-21T06:06:50;101876.06;;;17.43;61.60
47716;BME280;33476;50.984;3.538;2023-05-21T06:09:16;101875.97;;;17.45;61.66
47716;BME280;33476;50.984;3.538;2023-05-21T06:11:42;101882.78;;;17.49;61.51
47716;BME280;33476;50.984;3.538;2023-05-21T06:14:07;101878.16;;;17.52;61.42
47716;BME280;33476;50.984;3.538;2023-05-21T06:16:32;101879.97;;;17.52;61.48
47716;BME280;33476;50.984;3.538;2023-05-21T06:18:58;101873.47;;;17.57;61.67
47716;BME280;33476;50.984;3.538;2023-05-21T06:21:23;101875.75;;;17.63;61.51
47716;BME280;33476;50.984;3.538;2023-05-21T06:23:49;101876.28;;;17.68;61.46
47716;BME280;33476;50.984;3.538;2023-05-21T06:26:14;101869.81;;;17.74;61.59
47716;BME280;33476;50.984;3.538;2023-05-21T06:28:39;101871.25;;;17.80;61.54
47716;BME280;33476;50.984;3.538;2023-05-21T06:31:05;101875.13;;;17.88;61.36
47716;BME280;33476;50.984;3.538;2023-05-21T06:33:30;101874.25;;;18.02;61.07
47716;BME280;33476;50.984;3.538;2023-05-21T06:35:57;101873.66;;;18.11;61.10
47716;BME280;33476;50.984;3.538;2023-05-21T06:38:22;101868.56;;;18.22;61.17
47716;BME280;33476;50.984;3.538;2023-05-21T06:40:47;101870.97;;;18.40;60.81
47716;BME280;33476;50.984;3.538;2023-05-21T06:43:13;101866.50;;;18.55;60.55
47716;BME280;33476;50.984;3.538;2023-05-21T06:45:38;101871.75;;;18.69;60.35
47716;BME280;33476;50.984;3.538;2023-05-21T06:48:04;101872.78;;;18.80;60.06
47716;BME280;33476;50.984;3.538;2023-05-21T06:50:30;101876.63;;;18.89;59.79
47716;BME280;33476;50.984;3.538;2023-05-21T06:52:55;101872.09;;;19.04;59.54
47716;BME280;33476;50.984;3.538;2023-05-21T06:55:21;101868.50;;;19.18;58.97
47716;BME280;33476;50.984;3.538;2023-05-21T06:57:46;101864.28;;;19.28;58.83
47716;BME280;33476;50.984;3.538;2023-05-21T07:00:12;101871.09;;;19.32;58.34
47716;BME280;33476;50.984;3.538;2023-05-21T07:02:38;101866.41;;;19.35;58.38
47716;BME280;33476;50.984;3.538;2023-05-21T07:05:03;101867.91;;;19.40;58.34
47716;BME280;33476;50.984;3.538;2023-05-21T07:07:29;101867.59;;;19.44;57.97
47716;BME280;33476;50.984;3.538;2023-05-21T07:09:54;101867.91;;;19.52;57.76
47716;BME280;33476;50.984;3.538;2023-05-21T07:12:20;101870.06;;;19.60;58.00
47716;BME280;33476;50.984;3.538;2023-05-21T07:14:45;101867.00;;;19.66;57.42
47716;BME280;33476;50.984;3.538;2023-05-21T07:17:10;101867.66;;;19.70;56.87
47716;BME280;33476;50.984;3.538;2023-05-21T07:19:36;101870.06;;;19.73;57.21
47716;BME280;33476;50.984;3.538;2023-05-21T07:22:02;101863.03;;;19.84;57.19
47716;BME280;33476;50.984;3.538;2023-05-21T07:24:28;101871.63;;;20.01;56.83
47716;BME280;33476;50.984;3.538;2023-05-21T07:26:53;101870.03;;;20.11;56.26
47716;BME280;33476;50.984;3.538;2023-05-21T07:29:19;101864.50;;;20.14;56.15
47716;BME280;33476;50.984;3.538;2023-05-21T07:31:44;101864.78;;;20.22;56.03
47716;BME280;33476;50.984;3.538;2023-05-21T07:34:09;101856.59;;;20.25;55.94
47716;BME280;33476;50.984;3.538;2023-05-21T07:36:35;101869.09;;;20.36;55.85
47716;BME280;33476;50.984;3.538;2023-05-21T07:39:01;101868.63;;;20.42;55.71
47716;BME280;33476;50.984;3.538;2023-05-21T07:41:26;101861.13;;;20.48;55.62
47716;BME280;33476;50.984;3.538;2023-05-21T07:43:52;101874.84;;;20.66;55.57
47716;BME280;33476;50.984;3.538;2023-05-21T07:46:17;101870.34;;;20.80;55.06
47716;BME280;33476;50.984;3.538;2023-05-21T07:48:42;101858.50;;;20.84;54.97
47716;BME280;33476;50.984;3.538;2023-05-21T07:51:08;101855.41;;;20.90;55.00
47716;BME280;33476;50.984;3.538;2023-05-21T07:53:34;101863.13;;;20.93;54.86
47716;BME280;33476;50.984;3.538;2023-05-21T07:55:59;101859.41;;;20.95;54.45
47716;BME280;33476;50.984;3.538;2023-05-21T07:58:25;101860.97;;;20.98;54.25
47716;BME280;33476;50.984;3.538;2023-05-21T08:00:50;101858.19;;;20.99;53.75
47716;BME280;33476;50.984;3.538;2023-05-21T08:03:16;101858.00;;;21.02;53.94
47716;BME280;33476;50.984;3.538;2023-05-21T08:05:43;101855.97;;;21.17;54.08
47716;BME280;33476;50.984;3.538;2023-05-21T08:08:19;101845.41;;;21.28;53.65
47716;BME280;33476;50.984;3.538;2023-05-21T08:10:46;101842.41;;;21.44;53.35
47716;BME280;33476;50.984;3.538;2023-05-21T08:13:15;101845.19;;;21.54;53.40
47716;BME280;33476;50.984;3.538;2023-05-21T08:15:41;101845.44;;;21.62;52.86
47716;BME280;33476;50.984;3.538;2023-05-21T08:18:06;101841.31;;;21.58;52.87
47716;BME280;33476;50.984;3.538;2023-05-21T08:20:32;101834.56;;;21.65;52.96
47716;BME280;33476;50.984;3.538;2023-05-21T08:22:58;101829.25;;;21.76;52.44
47716;BME280;33476;50.984;3.538;2023-05-21T08:25:25;101834.91;;;21.83;52.06
47716;BME280;33476;50.984;3.538;2023-05-21T08:27:50;101831.06;;;21.87;51.59
47716;BME280;33476;50.984;3.538;2023-05-21T08:30:16;101831.91;;;21.87;51.30
47716;BME280;33476;50.984;3.538;2023-05-21T08:32:41;101839.38;;;21.82;50.90
47716;BME280;33476;50.984;3.538;2023-05-21T08:35:07;101833.94;;;21.84;51.21
47716;BME280;33476;50.984;3.538;2023-05-21T08:37:33;101836.97;;;21.91;51.17
47716;BME280;33476;50.984;3.538;2023-05-21T08:39:58;101828.03;;;22.03;51.29
47716;BME280;33476;50.984;3.538;2023-05-21T08:42:35;101834.44;;;22.11;50.96
47716;BME280;33476;50.984;3.538;2023-05-21T08:45:04;101826.91;;;22.28;50.65
47716;BME280;33476;50.984;3.538;2023-05-21T08:47:33;101827.97;;;22.36;50.80
47716;BME280;33476;50.984;3.538;2023-05-21T08:49:59;101831.06;;;22.53;50.51
47716;BME280;33476;50.984;3.538;2023-05-21T08:52:25;101835.50;;;22.63;50.43
47716;BME280;33476;50.984;3.538;2023-05-21T08:54:52;101824.59;;;22.66;50.11
47716;BME280;33476;50.984;3.538;2023-05-21T08:57:19;101830.31;;;22.83;49.83
47716;BME280;33476;50.984;3.538;2023-05-21T08:59:47;101820.72;;;23.03;49.96
47716;BME280;33476;50.984;3.538;2023-05-21T09:02:13;101818.16;;;23.22;49.46
47716;BME280;33476;50.984;3.538;2023-05-21T09:04:40;101837.13;;;23.29;48.79
47716;BME280;33476;50.984;3.538;2023-05-21T09:07:06;101826.63;;;23.27;48.45
47716;BME280;33476;50.984;3.538;2023-05-21T09:09:38;101820.31;;;23.28;49.35
47716;BME280;33476;50.984;3.538;2023-05-21T09:12:06;101827.88;;;23.33;48.50
47716;BME280;33476;50.984;3.538;2023-05-21T09:14:33;101828.44;;;23.26;48.78
47716;BME280;33476;50.984;3.538;2023-05-21T09:16:59;101826.47;;;23.29;48.59
47716;BME280;33476;50.984;3.538;2023-05-21T09:19:25;101823.22;;;23.25;48.62
47716;BME280;33476;50.984;3.538;2023-05-21T09:21:51;101825.59;;;23.18;48.67
47716;BME280;33476;50.984;3.538;2023-05-21T09:24:22;101828.75;;;23.12;48.78
47716;BME280;33476;50.984;3.538;2023-05-21T09:26:48;101828.00;;;23.01;48.87
47716;BME280;33476;50.984;3.538;2023-05-21T09:29:13;101827.91;;;22.91;48.93
47716;BME280;33476;50.984;3.538;2023-05-21T09:31:42;101829.28;;;22.85;49.22
47716;BME280;33476;50.984;3.538;2023-05-21T09:34:08;101828.31;;;22.86;49.60
47716;BME280;33476;50.984;3.538;2023-05-21T09:36:36;101822.47;;;22.81;49.25
47716;BME280;33476;50.984;3.538;2023-05-21T09:39:02;101817.41;;;22.78;49.36
47716;BME280;33476;50.984;3.538;2023-05-21T09:41:33;101814.75;;;22.78;49.36
47716;BME280;33476;50.984;3.538;2023-05-21T09:44:00;101819.38;;;22.76;49.52
47716;BME280;33476;50.984;3.538;2023-05-21T09:46:26;101811.16;;;22.68;49.52
47716;BME280;33476;50.984;3.538;2023-05-21T09:48:51;101806.47;;;22.60;49.27
47716;BME280;33476;50.984;3.538;2023-05-21T09:51:18;101812.22;;;22.45;50.23
47716;BME280;33476;50.984;3.538;2023-05-21T09:53:48;101806.69;;;22.36;50.34
47716;BME280;33476;50.984;3.538;2023-05-21T09:56:17;101810.31;;;22.35;49.96
47716;BME280;33476;50.984;3.538;2023-05-21T09:58:43;101814.06;;;22.33;49.93
47716;BME280;33476;50.984;3.538;2023-05-21T10:01:09;101815.25;;;22.40;50.04
47716;BME280;33476;50.984;3.538;2023-05-21T10:03:38;101802.78;;;22.40;50.32
47716;BME280;33476;50.984;3.538;2023-05-21T10:06:06;101808.19;;;22.50;50.53
47716;BME280;33476;50.984;3.538;2023-05-21T10:08:34;101808.31;;;22.60;50.27
47716;BME280;33476;50.984;3.538;2023-05-21T10:11:04;101802.97;;;22.60;50.18
47716;BME280;33476;50.984;3.538;2023-05-21T10:13:30;101799.56;;;22.58;49.81
47716;BME280;33476;50.984;3.538;2023-05-21T10:16:00;101800.34;;;22.49;49.68
47716;BME280;33476;50.984;3.538;2023-05-21T10:18:27;101798.59;;;22.59;49.75
47716;BME280;33476;50.984;3.538;2023-05-21T10:20:55;101792.75;;;22.65;50.30
47716;BME280;33476;50.984;3.538;2023-05-21T10:23:22;101783.44;;;22.70;50.45
47716;BME280;33476;50.984;3.538;2023-05-21T10:25:48;101781.03;;;22.67;50.18
47716;BME280;33476;50.984;3.538;2023-05-21T10:28:15;101780.06;;;22.68;49.87
47716;BME280;33476;50.984;3.538;2023-05-21T10:30:42;101775.16;;;22.74;50.32
47716;BME280;33476;50.984;3.538;2023-05-21T10:33:08;101776.34;;;22.81;50.21
47716;BME280;33476;50.984;3.538;2023-05-21T10:35:37;101764.09;;;22.89;50.18
47716;BME280;33476;50.984;3.538;2023-05-21T10:38:03;101777.22;;;23.02;50.14
47716;BME280;33476;50.984;3.538;2023-05-21T10:40:29;101766.75;;;23.10;49.78
47716;BME280;33476;50.984;3.538;2023-05-21T10:50:57;101759.84;;;23.29;49.51
47716;BME280;33476;50.984;3.538;2023-05-21T10:56:35;101751.53;;;23.52;49.24
47716;BME280;33476;50.984;3.538;2023-05-21T11:01:48;101751.25;;;23.96;49.18
47716;BME280;33476;50.984;3.538;2023-05-21T11:04:20;101758.69;;;24.02;48.86
47716;BME280;33476;50.984;3.538;2023-05-21T11:06:46;101754.38;;;24.20;48.78
47716;BME280;33476;50.984;3.538;2023-05-21T11:09:15;101755.06;;;24.22;48.15
47716;BME280;33476;50.984;3.538;2023-05-21T11:14:36;101751.38;;;23.85;48.08
47716;BME280;33476;50.984;3.538;2023-05-21T11:17:14;101750.22;;;23.77;48.41
47716;BME280;33476;50.984;3.538;2023-05-21T11:19:41;101747.69;;;23.76;48.26
47716;BME280;33476;50.984;3.538;2023-05-21T11:22:23;101738.84;;;23.75;48.95
47716;BME280;33476;50.984;3.538;2023-05-21T11:24:49;101737.44;;;23.71;48.70
47716;BME280;33476;50.984;3.538;2023-05-21T11:27:35;101739.09;;;23.63;48.73
47716;BME280;33476;50.984;3.538;2023-05-21T11:30:04;101729.75;;;23.57;49.05
47716;BME280;33476;50.984;3.538;2023-05-21T11:32:30;101730.34;;;23.51;49.34
47716;BME280;33476;50.984;3.538;2023-05-21T11:34:59;101727.91;;;23.48;49.72
47716;BME280;33476;50.984;3.538;2023-05-21T11:37:27;101731.88;;;23.53;49.17
47716;BME280;33476;50.984;3.538;2023-05-21T11:40:21;101730.44;;;23.49;49.57
47716;BME280;33476;50.984;3.538;2023-05-21T11:42:49;101739.59;;;23.57;48.98
47716;BME280;33476;50.984;3.538;2023-05-21T11:45:20;101742.81;;;23.50;49.24
47716;BME280;33476;50.984;3.538;2023-05-21T11:47:47;101736.19;;;23.45;49.17
47716;BME280;33476;50.984;3.538;2023-05-21T11:50:14;101740.41;;;23.47;49.42
47716;BME280;33476;50.984;3.538;2023-05-21T11:52:40;101737.50;;;23.50;49.97
47716;BME280;33476;50.984;3.538;2023-05-21T11:55:06;101738.44;;;23.49;49.45
47716;BME280;33476;50.984;3.538;2023-05-21T11:57:32;101737.44;;;23.41;49.69
47716;BME280;33476;50.984;3.538;2023-05-21T11:59:59;101735.00;;;23.28;49.66
47716;BME280;33476;50.984;3.538;2023-05-21T12:02:26;101745.31;;;23.12;49.72
47716;BME280;33476;50.984;3.538;2023-05-21T12:04:52;101746.09;;;23.03;50.44
47716;BME280;33476;50.984;3.538;2023-05-21T12:07:18;101742.97;;;22.97;50.88
47716;BME280;33476;50.984;3.538;2023-05-21T12:09:49;101749.94;;;22.89;50.90
47716;BME280;33476;50.984;3.538;2023-05-21T12:12:16;101755.41;;;22.87;51.12
47716;BME280;33476;50.984;3.538;2023-05-21T12:14:44;101748.53;;;22.85;51.18
47716;BME280;33476;50.984;3.538;2023-05-21T12:17:10;101742.56;;;22.81;51.17
47716;BME280;33476;50.984;3.538;2023-05-21T12:19:37;101754.72;;;22.74;51.51
47716;BME280;33476;50.984;3.538;2023-05-21T12:22:04;101749.09;;;22.67;51.76
47716;BME280;33476;50.984;3.538;2023-05-21T12:24:30;101747.50;;;22.65;52.26
47716;BME280;33476;50.984;3.538;2023-05-21T12:26:59;101744.84;;;22.65;52.31
47716;BME280;33476;50.984;3.538;2023-05-21T12:29:30;101754.06;;;22.61;52.05
47716;BME280;33476;50.984;3.538;2023-05-21T12:31:59;101755.06;;;22.60;52.08
47716;BME280;33476;50.984;3.538;2023-05-21T12:37:11;101746.84;;;22.52;51.96
47716;BME280;33476;50.984;3.538;2023-05-21T12:39:44;101745.03;;;22.52;52.01
47716;BME280;33476;50.984;3.538;2023-05-21T12:42:10;101746.00;;;22.51;52.40
47716;BME280;33476;50.984;3.538;2023-05-21T12:44:37;101743.84;;;22.45;52.55
47716;BME280;33476;50.984;3.538;2023-05-21T12:47:03;101742.31;;;22.42;52.75
47716;BME280;33476;50.984;3.538;2023-05-21T12:49:32;101739.66;;;22.42;52.55
47716;BME280;33476;50.984;3.538;2023-05-21T12:51:58;101739.50;;;22.44;52.50
47716;BME280;33476;50.984;3.538;2023-05-21T12:54:32;101728.72;;;22.46;52.46
47716;BME280;33476;50.984;3.538;2023-05-21T12:57:05;101726.84;;;22.57;52.15
47716;BME280;33476;50.984;3.538;2023-05-21T12:59:42;101723.81;;;22.62;52.47
47716;BME280;33476;50.984;3.538;2023-05-21T13:02:08;101726.53;;;22.71;52.37
47716;BME280;33476;50.984;3.538;2023-05-21T13:04:35;101713.78;;;22.75;51.92
47716;BME280;33476;50.984;3.538;2023-05-21T13:07:00;101715.16;;;22.69;52.10
47716;BME280;33476;50.984;3.538;2023-05-21T13:09:26;101715.75;;;22.73;52.28